sensor_id;sensor_type;location;lat;lon;timestamp;pressure;altitude;pressure_sealevel;temperature;humidity
76050;BME280;64967;50.234;19.224;2023-06-14T00:00:54;98342.88;;;8.75;100.00
76050;BME280;64967;50.234;19.224;2023-06-14T00:03:26;98346.16;;;8.71;100.00
76050;BME280;64967;50.234;19.224;2023-06-14T00:06:12;98274.28;;;8.29;100.00
76050;BME280;64967;50.234;19.224;2023-06-14T00:09:00;98328.47;;;8.62;100.00
76050;BME280;64967;50.234;19.224;2023-06-14T00:11:52;98340.50;;;8.59;100.00
76050;BME280;64967;50.234;19.224;2023-06-14T00:14:40;98337.53;;;8.54;99.63
76050;BME280;64967;50.234;19.224;2023-06-14T00:17:28;98338.53;;;8.46;100.00
76050;BME280;64967;50.234;19.224;2023-06-14T00:19:59;98331.78;;;8.36;100.00
76050;BME280;64967;50.234;19.224;2023-06-14T00:22:26;98333.81;;;8.34;100.00
76050;BME280;64967;50.234;19.224;2023-06-14T00:24:55;98340.25;;;8.33;100.00
76050;BME280;64967;50.234;19.224;2023-06-14T00:27:22;98335.69;;;8.33;100.00
76050;BME280;64967;50.234;19.224;2023-06-14T00:29:49;98342.56;;;8.36;100.00
76050;BME280;64967;50.234;19.224;2023-06-14T00:32:18;98323.25;;;8.32;100.00
76050;BME280;64967;50.234;19.224;2023-06-14T00:34:45;98335.50;;;8.35;100.00
76050;BME280;64967;50.234;19.224;2023-06-14T00:37:12;98329.84;;;8.30;100.00
76050;BME280;64967;50.234;19.224;2023-06-14T00:39:39;98331.06;;;8.27;100.00
76050;BME280;64967;50.234;19.224;2023-06-14T00:42:06;98333.94;;;8.26;100.00
76050;BME280;64967;50.234;19.224;2023-06-14T00:44:33;98336.38;;;8.21;100.00
76050;BME280;64967;50.234;19.224;2023-06-14T00:47:01;98331.81;;;8.21;100.00
76050;BME280;64967;50.234;19.224;2023-06-14T00:49:29;98333.03;;;8.19;100.00
76050;BME280;64967;50.234;19.224;2023-06-14T00:51:56;98330.72;;;8.16;100.00
76050;BME280;64967;50.234;19.224;2023-06-14T00:54:23;98332.97;;;8.12;100.00
76050;BME280;64967;50.234;19.224;2023-06-14T00:56:50;98320.53;;;8.11;100.00
76050;BME280;64967;50.234;19.224;2023-06-14T00:59:17;98324.25;;;8.10;100.00
76050;BME280;64967;50.234;19.224;2023-06-14T01:01:44;98321.34;;;8.12;100.00
76050;BME280;64967;50.234;19.224;2023-06-14T01:04:12;98307.63;;;8.06;100.00
76050;BME280;64967;50.234;19.224;2023-06-14T01:07:07;98316.63;;;8.14;100.00
76050;BME280;64967;50.234;19.224;2023-06-14T01:13:34;98313.59;;;8.02;100.00
76050;BME280;64967;50.234;19.224;2023-06-14T01:16:23;98316.28;;;8.02;100.00
76050;BME280;64967;50.234;19.224;2023-06-14T01:19:05;98314.97;;;7.91;100.00
76050;BME280;64967;50.234;19.224;2023-06-14T01:21:35;98308.56;;;7.92;100.00
76050;BME280;64967;50.234;19.224;2023-06-14T01:24:09;98278.28;;;7.69;100.00
76050;BME280;64967;50.234;19.224;2023-06-14T01:26:38;98309.47;;;7.85;100.00
76050;BME280;64967;50.234;19.224;2023-06-14T01:29:14;98304.38;;;7.54;100.00
76050;BME280;64967;50.234;19.224;2023-06-14T01:31:45;98307.34;;;7.59;100.00
76050;BME280;64967;50.234;19.224;2023-06-14T01:34:12;98302.84;;;7.66;100.00
76050;BME280;64967;50.234;19.224;2023-06-14T01:36:44;98304.81;;;7.72;100.00
76050;BME280;64967;50.234;19.224;2023-06-14T01:39:14;98290.78;;;7.77;100.00
76050;BME280;64967;50.234;19.224;2023-06-14T01:41:42;98304.94;;;7.85;100.00
76050;BME280;64967;50.234;19.224;2023-06-14T01:44:13;98315.78;;;7.92;100.00
76050;BME280;64967;50.234;19.224;2023-06-14T01:46:42;98309.44;;;7.99;100.00
76050;BME280;64967;50.234;19.224;2023-06-14T01:49:11;98300.97;;;8.02;100.00
76050;BME280;64967;50.234;19.224;2023-06-14T01:51:38;98305.19;;;8.12;100.00
76050;BME280;64967;50.234;19.224;2023-06-14T01:54:05;98309.81;;;8.18;100.00
76050;BME280;64967;50.234;19.224;2023-06-14T01:56:32;98307.28;;;8.10;100.00
76050;BME280;64967;50.234;19.224;2023-06-14T01:58:59;98294.31;;;7.98;100.00
76050;BME280;64967;50.234;19.224;2023-06-14T02:01:26;98295.72;;;8.16;100.00
76050;BME280;64967;50.234;19.224;2023-06-14T02:03:53;98295.50;;;8.32;100.00
76050;BME280;64967;50.234;19.224;2023-06-14T02:06:20;98308.03;;;8.46;100.00
76050;BME280;64967;50.234;19.224;2023-06-14T02:08:47;98292.16;;;8.58;100.00
76050;BME280;64967;50.234;19.224;2023-06-14T02:11:14;98295.53;;;8.66;100.00
76050;BME280;64967;50.234;19.224;2023-06-14T02:13:42;98307.66;;;8.77;100.00
76050;BME280;64967;50.234;19.224;2023-06-14T02:16:09;98293.97;;;8.78;100.00
76050;BME280;64967;50.234;19.224;2023-06-14T02:18:36;98304.44;;;8.94;100.00
76050;BME280;64967;50.234;19.224;2023-06-14T02:21:03;98300.94;;;9.01;100.00
76050;BME280;64967;50.234;19.224;2023-06-14T02:23:30;98314.06;;;9.10;100.00
76050;BME280;64967;50.234;19.224;2023-06-14T02:26:01;98300.63;;;9.17;100.00
76050;BME280;64967;50.234;19.224;2023-06-14T02:28:29;98294.00;;;9.19;100.00
76050;BME280;64967;50.234;19.224;2023-06-14T02:30:56;98304.06;;;9.32;100.00
76050;BME280;64967;50.234;19.224;2023-06-14T02:33:23;98303.66;;;9.41;100.00
76050;BME280;64967;50.234;19.224;2023-06-14T02:35:52;98292.06;;;9.48;100.00
76050;BME280;64967;50.234;19.224;2023-06-14T02:38:19;98294.38;;;9.57;100.00
76050;BME280;64967;50.234;19.224;2023-06-14T02:40:46;98295.03;;;9.66;100.00
76050;BME280;64967;50.234;19.224;2023-06-14T02:43:13;98286.34;;;9.70;100.00
76050;BME280;64967;50.234;19.224;2023-06-14T02:45:40;98291.97;;;9.75;100.00
76050;BME280;64967;50.234;19.224;2023-06-14T02:48:07;98274.69;;;9.63;100.00
76050;BME280;64967;50.234;19.224;2023-06-14T02:50:34;98294.03;;;9.80;100.00
76050;BME280;64967;50.234;19.224;2023-06-14T02:53:01;98279.72;;;9.79;100.00
76050;BME280;64967;50.234;19.224;2023-06-14T02:55:30;98283.06;;;9.81;100.00
76050;BME280;64967;50.234;19.224;2023-06-14T02:57:57;98284.31;;;9.85;100.00
76050;BME280;64967;50.234;19.224;2023-06-14T03:00:24;98070.19;;;8.59;100.00
76050;BME280;64967;50.234;19.224;2023-06-14T03:02:51;98264.97;;;9.82;100.00
76050;BME280;64967;50.234;19.224;2023-06-14T03:05:18;98291.38;;;10.00;100.00
76050;BME280;64967;50.234;19.224;2023-06-14T03:07:48;98289.50;;;10.00;100.00
76050;BME280;64967;50.234;19.224;2023-06-14T03:10:17;98263.53;;;9.86;100.00
76050;BME280;64967;50.234;19.224;2023-06-14T03:12:44;98272.28;;;10.01;100.00
76050;BME280;64967;50.234;19.224;2023-06-14T03:15:11;98273.19;;;10.21;100.00
76050;BME280;64967;50.234;19.224;2023-06-14T03:17:39;98284.38;;;10.32;100.00
76050;BME280;64967;50.234;19.224;2023-06-14T03:20:07;98277.75;;;10.34;100.00
76050;BME280;64967;50.234;19.224;2023-06-14T03:22:35;98273.16;;;10.41;100.00
76050;BME280;64967;50.234;19.224;2023-06-14T03:25:02;98276.06;;;10.46;100.00
76050;BME280;64967;50.234;19.224;2023-06-14T03:27:31;98285.03;;;10.47;100.00
76050;BME280;64967;50.234;19.224;2023-06-14T03:29:58;98275.44;;;10.51;100.00
76050;BME280;64967;50.234;19.224;2023-06-14T03:32:25;98285.84;;;10.54;100.00
76050;BME280;64967;50.234;19.224;2023-06-14T03:34:52;98282.13;;;10.61;100.00
76050;BME280;64967;50.234;19.224;2023-06-14T03:37:19;98287.31;;;10.69;100.00
76050;BME280;64967;50.234;19.224;2023-06-14T03:39:46;98284.38;;;10.78;100.00
76050;BME280;64967;50.234;19.224;2023-06-14T03:42:14;98291.03;;;10.82;100.00
76050;BME280;64967;50.234;19.224;2023-06-14T03:44:41;98292.50;;;10.84;100.00
76050;BME280;64967;50.234;19.224;2023-06-14T03:47:08;98296.44;;;10.88;100.00
76050;BME280;64967;50.234;19.224;2023-06-14T03:49:35;98301.00;;;10.88;100.00
76050;BME280;64967;50.234;19.224;2023-06-14T03:52:03;98298.06;;;10.96;100.00
76050;BME280;64967;50.234;19.224;2023-06-14T03:54:30;98295.38;;;10.96;100.00
76050;BME280;64967;50.234;19.224;2023-06-14T03:57:02;98299.94;;;11.02;100.00
76050;BME280;64967;50.234;19.224;2023-06-14T03:59:29;98293.06;;;10.99;100.00
76050;BME280;64967;50.234;19.224;2023-06-14T04:01:56;98298.88;;;11.09;100.00
76050;BME280;64967;50.234;19.224;2023-06-14T04:04:23;98293.88;;;11.13;100.00
76050;BME280;64967;50.234;19.224;2023-06-14T04:06:56;98295.16;;;11.10;100.00
76050;BME280;64967;50.234;19.224;2023-06-14T04:09:24;98290.97;;;11.08;100.00
76050;BME280;64967;50.234;19.224;2023-06-14T04:11:52;98300.13;;;11.13;100.00
76050;BME280;64967;50.234;19.224;2023-06-14T04:14:20;98289.28;;;11.20;100.00
76050;BME280;64967;50.234;19.224;2023-06-14T04:16:48;98278.47;;;11.20;100.00
76050;BME280;64967;50.234;19.224;2023-06-14T04:19:15;98286.78;;;11.25;100.00
76050;BME280;64967;50.234;19.224;2023-06-14T04:21:42;98301.13;;;11.32;100.00
76050;BME280;64967;50.234;19.224;2023-06-14T04:24:10;98256.81;;;11.13;100.00
76050;BME280;64967;50.234;19.224;2023-06-14T04:26:44;98310.84;;;11.46;100.00
76050;BME280;64967;50.234;19.224;2023-06-14T04:29:11;98297.31;;;11.46;100.00
76050;BME280;64967;50.234;19.224;2023-06-14T04:31:43;98303.34;;;11.48;100.00
76050;BME280;64967;50.234;19.224;2023-06-14T04:34:12;98295.22;;;11.48;100.00
76050;BME280;64967;50.234;19.224;2023-06-14T04:36:45;98305.84;;;11.56;100.00
76050;BME280;64967;50.234;19.224;2023-06-14T04:39:20;98297.91;;;11.61;100.00
76050;BME280;64967;50.234;19.224;2023-06-14T04:41:48;98305.84;;;11.56;100.00
76050;BME280;64967;50.234;19.224;2023-06-14T04:44:19;98298.31;;;11.58;100.00
76050;BME280;64967;50.234;19.224;2023-06-14T04:46:51;98294.56;;;11.59;100.00
76050;BME280;64967;50.234;19.224;2023-06-14T04:49:18;98291.22;;;11.57;100.00
76050;BME280;64967;50.234;19.224;2023-06-14T04:51:45;98289.13;;;11.66;100.00
76050;BME280;64967;50.234;19.224;2023-06-14T04:54:13;98299.09;;;11.79;100.00
76050;BME280;64967;50.234;19.224;2023-06-14T04:56:42;98292.44;;;11.68;100.00
76050;BME280;64967;50.234;19.224;2023-06-14T04:59:09;98271.16;;;11.72;100.00
76050;BME280;64967;50.234;19.224;2023-06-14T05:01:38;98296.91;;;11.94;100.00
76050;BME280;64967;50.234;19.224;2023-06-14T05:04:05;98298.13;;;11.98;100.00
76050;BME280;64967;50.234;19.224;2023-06-14T05:06:32;98310.63;;;12.05;100.00
76050;BME280;64967;50.234;19.224;2023-06-14T05:08:59;98307.25;;;12.10;100.00
76050;BME280;64967;50.234;19.224;2023-06-14T05:11:26;98305.94;;;12.19;100.00
76050;BME280;64967;50.234;19.224;2023-06-14T05:13:54;98306.94;;;12.25;100.00
76050;BME280;64967;50.234;19.224;2023-06-14T05:16:21;98309.69;;;12.18;100.00
76050;BME280;64967;50.234;19.224;2023-06-14T05:18:52;98313.81;;;12.27;100.00
76050;BME280;64967;50.234;19.224;2023-06-14T05:21:19;98314.81;;;12.33;100.00
76050;BME280;64967;50.234;19.224;2023-06-14T05:23:46;98319.75;;;12.42;100.00
76050;BME280;64967;50.234;19.224;2023-06-14T05:26:14;98311.19;;;12.45;100.00
76050;BME280;64967;50.234;19.224;2023-06-14T05:28:41;98323.25;;;12.49;100.00
76050;BME280;64967;50.234;19.224;2023-06-14T05:31:08;98281.75;;;12.18;100.00
76050;BME280;64967;50.234;19.224;2023-06-14T05:33:35;98324.75;;;12.45;100.00
76050;BME280;64967;50.234;19.224;2023-06-14T05:36:02;98319.88;;;12.54;100.00
76050;BME280;64967;50.234;19.224;2023-06-14T05:38:31;98321.72;;;12.60;100.00
76050;BME280;64967;50.234;19.224;2023-06-14T05:40:58;98325.47;;;12.59;100.00
76050;BME280;64967;50.234;19.224;2023-06-14T05:43:26;98326.06;;;12.61;100.00
76050;BME280;64967;50.234;19.224;2023-06-14T05:45:53;98325.84;;;12.63;100.00
76050;BME280;64967;50.234;19.224;2023-06-14T05:48:20;98325.09;;;12.56;100.00
76050;BME280;64967;50.234;19.224;2023-06-14T05:50:47;98331.44;;;12.68;100.00
76050;BME280;64967;50.234;19.224;2023-06-14T05:53:14;98334.94;;;12.75;100.00
76050;BME280;64967;50.234;19.224;2023-06-14T06:11:26;98327.69;;;12.69;100.00
76050;BME280;64967;50.234;19.224;2023-06-14T06:14:03;98324.81;;;12.64;100.00
76050;BME280;64967;50.234;19.224;2023-06-14T06:16:30;98327.34;;;12.59;100.00
76050;BME280;64967;50.234;19.224;2023-06-14T06:18:57;98327.63;;;12.75;100.00
76050;BME280;64967;50.234;19.224;2023-06-14T06:21:24;98329.94;;;12.72;100.00
76050;BME280;64967;50.234;19.224;2023-06-14T06:26:53;98332.25;;;12.93;100.00
76050;BME280;64967;50.234;19.224;2023-06-14T06:29:20;98336.19;;;12.97;100.00
76050;BME280;64967;50.234;19.224;2023-06-14T06:31:47;98329.66;;;12.80;100.00
76050;BME280;64967;50.234;19.224;2023-06-14T06:34:15;98339.03;;;12.84;100.00
76050;BME280;64967;50.234;19.224;2023-06-14T06:36:42;98341.81;;;12.77;100.00
76050;BME280;64967;50.234;19.224;2023-06-14T06:39:12;98298.34;;;12.59;100.00
76050;BME280;64967;50.234;19.224;2023-06-14T06:41:41;98346.78;;;13.05;100.00
76050;BME280;64967;50.234;19.224;2023-06-14T06:44:08;98344.94;;;13.24;100.00
76050;BME280;64967;50.234;19.224;2023-06-14T06:46:37;98354.31;;;13.28;100.00
76050;BME280;64967;50.234;19.224;2023-06-14T06:49:08;98353.66;;;13.32;100.00
76050;BME280;64967;50.234;19.224;2023-06-14T06:51:36;98338.94;;;13.22;100.00
76050;BME280;64967;50.234;19.224;2023-06-14T06:54:07;98356.38;;;13.32;100.00
76050;BME280;64967;50.234;19.224;2023-06-14T06:56:35;98365.78;;;13.30;100.00
76050;BME280;64967;50.234;19.224;2023-06-14T06:59:02;98358.09;;;13.27;100.00
76050;BME280;64967;50.234;19.224;2023-06-14T07:01:29;98354.25;;;13.34;100.00
76050;BME280;64967;50.234;19.224;2023-06-14T07:03:56;98361.03;;;13.44;100.00
76050;BME280;64967;50.234;19.224;2023-06-14T07:06:23;98363.31;;;13.47;100.00
76050;BME280;64967;50.234;19.224;2023-06-14T07:08:53;98369.28;;;13.37;100.00
76050;BME280;64967;50.234;19.224;2023-06-14T07:11:21;98365.78;;;13.30;100.00
76050;BME280;64967;50.234;19.224;2023-06-14T07:13:49;98374.31;;;13.33;100.00
76050;BME280;64967;50.234;19.224;2023-06-14T07:16:16;98376.59;;;13.36;100.00
76050;BME280;64967;50.234;19.224;2023-06-14T07:18:43;98372.94;;;13.43;100.00
76050;BME280;64967;50.234;19.224;2023-06-14T07:21:10;98378.22;;;13.37;100.00
76050;BME280;64967;50.234;19.224;2023-06-14T07:23:37;98380.19;;;13.30;100.00
76050;BME280;64967;50.234;19.224;2023-06-14T07:26:04;98374.31;;;13.33;100.00
76050;BME280;64967;50.234;19.224;2023-06-14T07:28:31;98380.72;;;13.39;100.00
76050;BME280;64967;50.234;19.224;2023-06-14T07:30:59;98387.00;;;13.39;100.00
76050;BME280;64967;50.234;19.224;2023-06-14T07:33:26;98388.03;;;13.38;100.00
76050;BME280;64967;50.234;19.224;2023-06-14T07:35:53;98394.53;;;13.37;100.00
76050;BME280;64967;50.234;19.224;2023-06-14T07:38:20;98398.16;;;13.31;100.00
76050;BME280;64967;50.234;19.224;2023-06-14T07:40:47;98399.66;;;13.27;100.00
76050;BME280;64967;50.234;19.224;2023-06-14T07:43:14;98396.03;;;13.33;100.00
76050;BME280;64967;50.234;19.224;2023-06-14T07:45:42;98402.38;;;13.27;100.00
76050;BME280;64967;50.234;19.224;2023-06-14T07:48:23;98404.78;;;13.35;100.00
76050;BME280;64967;50.234;19.224;2023-06-14T07:50:53;98399.38;;;13.35;100.00
76050;BME280;64967;50.234;19.224;2023-06-14T07:53:20;98405.16;;;13.39;100.00
76050;BME280;64967;50.234;19.224;2023-06-14T07:55:47;98401.31;;;13.47;100.00
76050;BME280;64967;50.234;19.224;2023-06-14T07:58:19;98402.84;;;13.61;100.00
76050;BME280;64967;50.234;19.224;2023-06-14T08:00:46;98408.13;;;13.56;100.00
76050;BME280;64967;50.234;19.224;2023-06-14T08:03:14;98409.06;;;13.68;100.00
76050;BME280;64967;50.234;19.224;2023-06-14T08:05:41;98413.00;;;13.72;100.00
76050;BME280;64967;50.234;19.224;2023-06-14T08:08:08;98407.97;;;13.32;100.00
76050;BME280;64967;50.234;19.224;2023-06-14T08:10:35;98405.53;;;13.43;100.00
76050;BME280;64967;50.234;19.224;2023-06-14T08:13:02;98406.63;;;13.42;100.00
76050;BME280;64967;50.234;19.224;2023-06-14T08:15:29;98402.66;;;13.37;100.00
76050;BME280;64967;50.234;19.224;2023-06-14T08:17:56;98404.28;;;13.45;100.00
76050;BME280;64967;50.234;19.224;2023-06-14T08:20:24;98397.72;;;13.53;100.00
76050;BME280;64967;50.234;19.224;2023-06-14T08:22:52;98399.09;;;13.62;100.00
76050;BME280;64967;50.234;19.224;2023-06-14T08:25:22;98399.22;;;13.49;100.00
76050;BME280;64967;50.234;19.224;2023-06-14T08:27:50;98410.13;;;13.67;100.00
76050;BME280;64967;50.234;19.224;2023-06-14T08:30:17;98401.50;;;13.70;100.00
76050;BME280;64967;50.234;19.224;2023-06-14T08:32:44;98363.38;;;13.40;100.00
76050;BME280;64967;50.234;19.224;2023-06-14T08:35:13;98412.75;;;13.73;100.00
76050;BME280;64967;50.234;19.224;2023-06-14T08:37:41;98412.63;;;13.87;100.00
76050;BME280;64967;50.234;19.224;2023-06-14T08:40:19;98415.47;;;13.92;100.00
76050;BME280;64967;50.234;19.224;2023-06-14T08:42:54;98410.88;;;13.92;100.00
76050;BME280;64967;50.234;19.224;2023-06-14T08:45:22;98405.81;;;13.96;98.52
76050;BME280;64967;50.234;19.224;2023-06-14T08:47:53;98417.81;;;13.88;100.00
76050;BME280;64967;50.234;19.224;2023-06-14T08:50:26;98413.88;;;14.02;100.00
76050;BME280;64967;50.234;19.224;2023-06-14T08:53:00;98423.56;;;13.80;99.14
76050;BME280;64967;50.234;19.224;2023-06-14T08:55:31;98424.59;;;13.79;100.00
76050;BME280;64967;50.234;19.224;2023-06-14T08:58:02;98414.72;;;13.84;99.66
76050;BME280;64967;50.234;19.224;2023-06-14T09:00:30;98428.38;;;13.96;100.00
76050;BME280;64967;50.234;19.224;2023-06-14T09:03:00;98429.69;;;13.94;98.95
76050;BME280;64967;50.234;19.224;2023-06-14T09:05:28;98438.66;;;13.94;100.00
76050;BME280;64967;50.234;19.224;2023-06-14T09:07:55;98437.16;;;13.98;99.25
76050;BME280;64967;50.234;19.224;2023-06-14T09:10:32;98425.97;;;13.88;99.15
76050;BME280;64967;50.234;19.224;2023-06-14T09:13:05;98445.59;;;13.72;100.00
76050;BME280;64967;50.234;19.224;2023-06-14T09:15:32;98441.66;;;13.68;100.00
76050;BME280;64967;50.234;19.224;2023-06-14T09:18:03;98444.97;;;13.70;100.00
76050;BME280;64967;50.234;19.224;2023-06-14T09:20:31;98450.66;;;13.68;100.00
76050;BME280;64967;50.234;19.224;2023-06-14T09:23:00;98446.34;;;13.79;100.00
76050;BME280;64967;50.234;19.224;2023-06-14T09:25:27;98446.44;;;13.91;100.00
76050;BME280;64967;50.234;19.224;2023-06-14T09:28:07;98448.66;;;14.00;100.00
76050;BME280;64967;50.234;19.224;2023-06-14T09:30:39;98447.81;;;14.00;100.00
76050;BME280;64967;50.234;19.224;2023-06-14T09:33:07;98432.00;;;13.72;100.00
76050;BME280;64967;50.234;19.224;2023-06-14T09:35:34;98432.84;;;13.72;100.00
76050;BME280;64967;50.234;19.224;2023-06-14T09:38:03;98446.78;;;13.58;100.00
76050;BME280;64967;50.234;19.224;2023-06-14T09:40:34;98450.28;;;13.83;100.00
76050;BME280;64967;50.234;19.224;2023-06-14T09:43:05;98452.63;;;13.98;100.00
76050;BME280;64967;50.234;19.224;2023-06-14T09:45:33;98427.63;;;13.89;100.00
76050;BME280;64967;50.234;19.224;2023-06-14T09:48:02;98442.06;;;14.08;100.00
76050;BME280;64967;50.234;19.224;2023-06-14T09:50:34;98444.53;;;14.27;100.00
76050;BME280;64967;50.234;19.224;2023-06-14T09:53:10;98433.66;;;14.46;100.00
76050;BME280;64967;50.234;19.224;2023-06-14T09:55:40;98438.81;;;14.17;100.00
76050;BME280;64967;50.234;19.224;2023-06-14T09:58:10;98444.53;;;14.46;100.00
76050;BME280;64967;50.234;19.224;2023-06-14T10:00:39;98429.69;;;14.60;100.00
76050;BME280;64967;50.234;19.224;2023-06-14T10:03:21;98441.31;;;14.67;100.00
76050;BME280;64967;50.234;19.224;2023-06-14T10:05:51;98425.69;;;14.62;100.00
76050;BME280;64967;50.234;19.224;2023-06-14T10:08:20;98437.44;;;14.74;100.00
76050;BME280;64967;50.234;19.224;2023-06-14T10:10:51;98448.19;;;14.40;100.00
76050;BME280;64967;50.234;19.224;2023-06-14T10:13:19;98436.53;;;14.14;100.00
76050;BME280;64967;50.234;19.224;2023-06-14T10:18:45;98435.00;;;14.18;100.00
76050;BME280;64967;50.234;19.224;2023-06-14T10:21:23;98429.16;;;14.40;100.00
76050;BME280;64967;50.234;19.224;2023-06-14T10:23:56;98432.44;;;14.42;100.00
76050;BME280;64967;50.234;19.224;2023-06-14T10:26:27;98437.72;;;14.55;100.00
76050;BME280;64967;50.234;19.224;2023-06-14T10:29:01;98439.66;;;14.66;100.00
76050;BME280;64967;50.234;19.224;2023-06-14T10:31:41;98443.97;;;14.55;100.00
76050;BME280;64967;50.234;19.224;2023-06-14T10:34:09;98441.06;;;14.39;100.00
76050;BME280;64967;50.234;19.224;2023-06-14T10:36:38;98441.75;;;14.64;100.00
76050;BME280;64967;50.234;19.224;2023-06-14T10:39:12;98420.94;;;14.58;100.00
76050;BME280;64967;50.234;19.224;2023-06-14T10:41:41;98423.38;;;14.48;100.00
76050;BME280;64967;50.234;19.224;2023-06-14T10:49:41;98438.47;;;14.62;100.00
76050;BME280;64967;50.234;19.224;2023-06-14T10:52:14;98428.84;;;14.59;100.00
76050;BME280;64967;50.234;19.224;2023-06-14T10:57:33;98431.78;;;14.88;100.00
76050;BME280;64967;50.234;19.224;2023-06-14T11:00:18;98432.06;;;14.98;100.00
76050;BME280;64967;50.234;19.224;2023-06-14T11:02:58;98431.50;;;15.19;100.00
76050;BME280;64967;50.234;19.224;2023-06-14T11:06:00;98432.81;;;15.28;100.00
76050;BME280;64967;50.234;19.224;2023-06-14T11:11:07;98420.38;;;15.90;100.00
76050;BME280;64967;50.234;19.224;2023-06-14T11:13:39;98419.81;;;15.88;96.66
76050;BME280;64967;50.234;19.224;2023-06-14T11:16:13;98425.22;;;16.12;97.20
76050;BME280;64967;50.234;19.224;2023-06-14T11:18:42;98411.88;;;16.27;96.04
76050;BME280;64967;50.234;19.224;2023-06-14T11:21:09;98411.91;;;16.55;94.73
76050;BME280;64967;50.234;19.224;2023-06-14T11:23:36;98412.16;;;16.25;93.71
76050;BME280;64967;50.234;19.224;2023-06-14T11:26:04;98403.53;;;16.45;91.81
76050;BME280;64967;50.234;19.224;2023-06-14T11:28:39;98407.38;;;16.89;94.74
76050;BME280;64967;50.234;19.224;2023-06-14T11:31:08;98395.97;;;17.09;89.39
76050;BME280;64967;50.234;19.224;2023-06-14T11:33:36;98410.22;;;17.44;87.38
76050;BME280;64967;50.234;19.224;2023-06-14T11:36:05;98407.56;;;17.49;86.21
76050;BME280;64967;50.234;19.224;2023-06-14T11:38:36;98403.25;;;17.70;86.11
76050;BME280;64967;50.234;19.224;2023-06-14T11:41:04;98408.72;;;17.53;82.58
76050;BME280;64967;50.234;19.224;2023-06-14T11:43:32;98406.69;;;17.60;86.04
76050;BME280;64967;50.234;19.224;2023-06-14T11:46:01;98406.09;;;17.58;86.71
76050;BME280;64967;50.234;19.224;2023-06-14T11:48:41;98404.44;;;17.24;83.17
76050;BME280;64967;50.234;19.224;2023-06-14T11:51:09;98397.81;;;17.20;85.40
76050;BME280;64967;50.234;19.224;2023-06-14T11:53:36;98404.91;;;16.87;85.87
76050;BME280;64967;50.234;19.224;2023-06-14T11:56:04;98399.34;;;16.82;82.79
76050;BME280;64967;50.234;19.224;2023-06-14T11:58:31;98385.88;;;16.92;82.92
76050;BME280;64967;50.234;19.224;2023-06-14T12:00:59;98399.50;;;16.47;86.00
76050;BME280;64967;50.234;19.224;2023-06-14T12:03:26;98388.56;;;16.76;86.53
76050;BME280;64967;50.234;19.224;2023-06-14T12:06:07;98396.03;;;16.52;83.91
76050;BME280;64967;50.234;19.224;2023-06-14T12:08:37;98391.28;;;16.59;81.31
76050;BME280;64967;50.234;19.224;2023-06-14T12:11:11;98390.19;;;16.60;86.48
76050;BME280;64967;50.234;19.224;2023-06-14T12:13:39;98380.72;;;16.79;86.99
76050;BME280;64967;50.234;19.224;2023-06-14T12:16:10;98390.75;;;16.90;86.51
76050;BME280;64967;50.234;19.224;2023-06-14T12:18:40;98388.97;;;16.84;87.41
76050;BME280;64967;50.234;19.224;2023-06-14T12:21:09;98391.75;;;16.56;84.49
76050;BME280;64967;50.234;19.224;2023-06-14T12:23:46;98382.38;;;16.80;85.16
76050;BME280;64967;50.234;19.224;2023-06-14T12:26:18;98382.41;;;16.97;81.96
76050;BME280;64967;50.234;19.224;2023-06-14T12:28:47;98381.81;;;17.45;83.80
76050;BME280;64967;50.234;19.224;2023-06-14T12:31:15;98351.28;;;17.53;81.55
76050;BME280;64967;50.234;19.224;2023-06-14T12:33:43;98377.47;;;17.66;78.72
76050;BME280;64967;50.234;19.224;2023-06-14T12:36:13;98374.19;;;17.86;79.56
76050;BME280;64967;50.234;19.224;2023-06-14T12:38:40;98382.16;;;17.87;79.52
76050;BME280;64967;50.234;19.224;2023-06-14T12:41:08;98376.88;;;18.02;77.07
76050;BME280;64967;50.234;19.224;2023-06-14T12:43:35;98366.41;;;18.43;76.06
76050;BME280;64967;50.234;19.224;2023-06-14T12:46:02;98365.91;;;18.24;76.10
76050;BME280;64967;50.234;19.224;2023-06-14T12:48:29;98366.31;;;17.89;71.74
76050;BME280;64967;50.234;19.224;2023-06-14T12:50:58;98358.44;;;17.54;75.35
76050;BME280;64967;50.234;19.224;2023-06-14T12:53:25;98373.75;;;17.55;72.60
76050;BME280;64967;50.234;19.224;2023-06-14T12:55:52;98366.94;;;17.58;81.87
76050;BME280;64967;50.234;19.224;2023-06-14T12:58:19;98361.00;;;17.44;79.11
76050;BME280;64967;50.234;19.224;2023-06-14T13:00:47;98364.53;;;17.78;80.26
76050;BME280;64967;50.234;19.224;2023-06-14T13:03:14;98365.38;;;18.22;80.55
76050;BME280;64967;50.234;19.224;2023-06-14T13:05:42;98362.06;;;18.47;78.89
76050;BME280;64967;50.234;19.224;2023-06-14T13:08:09;98354.41;;;18.70;72.20
76050;BME280;64967;50.234;19.224;2023-06-14T13:10:37;98367.56;;;18.68;74.99
76050;BME280;64967;50.234;19.224;2023-06-14T13:13:04;98351.38;;;18.67;75.59
76050;BME280;64967;50.234;19.224;2023-06-14T13:15:31;98355.69;;;18.90;74.68
76050;BME280;64967;50.234;19.224;2023-06-14T13:17:58;98366.66;;;18.90;75.94
76050;BME280;64967;50.234;19.224;2023-06-14T13:20:25;98358.09;;;18.54;73.32
76050;BME280;64967;50.234;19.224;2023-06-14T13:22:53;98362.03;;;18.20;74.71
76050;BME280;64967;50.234;19.224;2023-06-14T13:25:20;98357.69;;;18.19;74.91
76050;BME280;64967;50.234;19.224;2023-06-14T13:27:47;98358.47;;;18.19;77.91
76050;BME280;64967;50.234;19.224;2023-06-14T13:30:14;98359.22;;;18.10;77.91
76050;BME280;64967;50.234;19.224;2023-06-14T13:32:42;98367.44;;;18.15;77.79